Estación Meteorológica Peña el Pijo (Robertgarden) [ 01/30/23 15:00:57 CET ]

Fecha Hora Presion(HPa) Temp (°C) Humedad % Rocio (°C) Viento ( m/s) Direccion Lluvia 1Hora(mm) Lluvia 24H(mm) LLuvia Total(mm)
2010-Nov-13 01:01:14 1011.000 4.4 74 0.1         2.07
2010-Nov-13 02:03:16 1010.700 4.2 77 0.5         2.07
2010-Nov-13 03:01:11 1010.400 4.1 79 0.8         2.07
2010-Nov-13 04:01:13 1009.800 4.1 79 0.8         2.07
2010-Nov-13 05:01:13 1009.000 2.9 80 -0.2         2.07
2010-Nov-13 06:01:16 1008.900 2.3 83 -0.3         2.07
2010-Nov-13 07:01:12 1008.700 1.6 84 -0.9         2.07
2010-Nov-13 08:01:11 1008.500 1.3 85 -1.0         2.07
2010-Nov-13 09:01:11 1008.700 2.4 88 0.6         2.07
2010-Nov-13 10:01:14 1008.800 12.3 64 5.7         2.07
2010-Nov-13 11:01:12 1008.200 17.6 44 5.1         2.07
2010-Nov-13 12:01:14 1007.300 22.4 36 6.5         2.07
2010-Nov-13 13:01:14 1006.500 24.1 30 5.5         2.07
2010-Nov-13 14:01:13 1005.800 24.2 29 5.0         2.07
2010-Nov-13 15:01:11 1005.100 23.9 29 4.7         2.07
2010-Nov-13 16:01:17 1004.700 22.8 31 4.8         2.07
2010-Nov-13 17:01:12 1004.900 18.3 37 3.3         2.07
2010-Nov-13 18:01:12 1005.200 14.6 47 3.4         2.07
2010-Nov-13 19:01:15 1005.400 10.5 60 3.0         2.07
2010-Nov-13 20:01:12 1005.900 8.4 67 2.6         2.07
2010-Nov-13 21:01:16 1005.500 7.0 74 2.7         2.07
2010-Nov-13 22:01:21 1005.600 5.8 78 2.2         2.07
2010-Nov-13 23:01:16 1005.500 5.6 81 2.6         2.07

Temperatura Máxima:24°    Temperatura Mínima:
Presión Máxima:1011.000 Hpa    Presión Mínima:1004.700 Hpa


Volver